sensor_id;sensor_type;location;lat;lon;timestamp;P1;durP1;ratioP1;P2;durP2;ratioP2
2854;SDS011;1435;49.472;10.940;2023-08-08T00:03:12;2.73;;;2.53;;
2854;SDS011;1435;49.472;10.940;2023-08-08T00:08:16;2.80;;;2.60;;
2854;SDS011;1435;49.472;10.940;2023-08-08T00:13:17;4.57;;;2.73;;
2854;SDS011;1435;49.472;10.940;2023-08-08T00:18:19;3.17;;;2.73;;
2854;SDS011;1435;49.472;10.940;2023-08-08T00:23:22;3.27;;;3.00;;
2854;SDS011;1435;49.472;10.940;2023-08-08T00:28:24;3.47;;;2.60;;
2854;SDS011;1435;49.472;10.940;2023-08-08T00:33:25;3.03;;;2.40;;
2854;SDS011;1435;49.472;10.940;2023-08-08T00:38:28;3.00;;;2.63;;
2854;SDS011;1435;49.472;10.940;2023-08-08T00:43:30;3.33;;;2.83;;
2854;SDS011;1435;49.472;10.940;2023-08-08T00:48:32;2.63;;;2.43;;
2854;SDS011;1435;49.472;10.940;2023-08-08T00:53:35;3.10;;;2.80;;
2854;SDS011;1435;49.472;10.940;2023-08-08T00:58:37;3.27;;;2.50;;
2854;SDS011;1435;49.472;10.940;2023-08-08T01:03:39;4.40;;;2.53;;
2854;SDS011;1435;49.472;10.940;2023-08-08T01:08:44;2.77;;;2.03;;
2854;SDS011;1435;49.472;10.940;2023-08-08T01:13:52;2.43;;;2.23;;
2854;SDS011;1435;49.472;10.940;2023-08-08T01:18:55;2.50;;;2.30;;
2854;SDS011;1435;49.472;10.940;2023-08-08T01:24:01;2.27;;;2.13;;
2854;SDS011;1435;49.472;10.940;2023-08-08T01:29:14;2.50;;;2.30;;
2854;SDS011;1435;49.472;10.940;2023-08-08T01:34:16;2.70;;;1.80;;
2854;SDS011;1435;49.472;10.940;2023-08-08T01:39:20;2.60;;;2.10;;
2854;SDS011;1435;49.472;10.940;2023-08-08T01:44:26;2.40;;;2.30;;
2854;SDS011;1435;49.472;10.940;2023-08-08T01:49:29;2.50;;;2.30;;
2854;SDS011;1435;49.472;10.940;2023-08-08T01:54:32;2.07;;;1.87;;
2854;SDS011;1435;49.472;10.940;2023-08-08T01:59:34;2.00;;;1.77;;
2854;SDS011;1435;49.472;10.940;2023-08-08T02:04:35;2.00;;;1.80;;
2854;SDS011;1435;49.472;10.940;2023-08-08T02:09:38;2.90;;;1.70;;
2854;SDS011;1435;49.472;10.940;2023-08-08T02:14:40;3.10;;;2.07;;
2854;SDS011;1435;49.472;10.940;2023-08-08T02:19:42;2.07;;;1.93;;
2854;SDS011;1435;49.472;10.940;2023-08-08T02:24:45;2.30;;;1.70;;
2854;SDS011;1435;49.472;10.940;2023-08-08T02:29:47;2.07;;;1.70;;
2854;SDS011;1435;49.472;10.940;2023-08-08T02:34:48;3.17;;;1.50;;
2854;SDS011;1435;49.472;10.940;2023-08-08T02:39:51;2.23;;;1.90;;
2854;SDS011;1435;49.472;10.940;2023-08-08T02:44:53;4.13;;;2.20;;
2854;SDS011;1435;49.472;10.940;2023-08-08T02:49:55;2.00;;;1.60;;
2854;SDS011;1435;49.472;10.940;2023-08-08T02:54:58;2.00;;;1.53;;
2854;SDS011;1435;49.472;10.940;2023-08-08T03:00:00;2.77;;;2.10;;
2854;SDS011;1435;49.472;10.940;2023-08-08T03:05:02;2.13;;;1.83;;
2854;SDS011;1435;49.472;10.940;2023-08-08T03:10:06;2.10;;;2.00;;
2854;SDS011;1435;49.472;10.940;2023-08-08T03:15:08;1.73;;;1.63;;
2854;SDS011;1435;49.472;10.940;2023-08-08T03:20:11;2.33;;;1.77;;
2854;SDS011;1435;49.472;10.940;2023-08-08T03:25:14;2.03;;;1.80;;
2854;SDS011;1435;49.472;10.940;2023-08-08T03:30:16;2.20;;;2.00;;
2854;SDS011;1435;49.472;10.940;2023-08-08T03:35:17;1.90;;;1.67;;
2854;SDS011;1435;49.472;10.940;2023-08-08T03:40:21;4.30;;;2.03;;
2854;SDS011;1435;49.472;10.940;2023-08-08T03:45:22;2.70;;;1.90;;
2854;SDS011;1435;49.472;10.940;2023-08-08T03:50:25;4.17;;;2.37;;
2854;SDS011;1435;49.472;10.940;2023-08-08T03:55:28;3.30;;;2.17;;
2854;SDS011;1435;49.472;10.940;2023-08-08T04:00:30;2.30;;;1.90;;
2854;SDS011;1435;49.472;10.940;2023-08-08T04:05:31;2.90;;;2.20;;
2854;SDS011;1435;49.472;10.940;2023-08-08T04:10:34;3.50;;;2.30;;
2854;SDS011;1435;49.472;10.940;2023-08-08T04:15:36;3.20;;;2.30;;
2854;SDS011;1435;49.472;10.940;2023-08-08T04:20:38;1.73;;;1.50;;
2854;SDS011;1435;49.472;10.940;2023-08-08T04:25:41;2.87;;;1.83;;
2854;SDS011;1435;49.472;10.940;2023-08-08T04:30:43;2.73;;;2.10;;
2854;SDS011;1435;49.472;10.940;2023-08-08T04:35:44;2.70;;;2.37;;
2854;SDS011;1435;49.472;10.940;2023-08-08T04:40:48;3.53;;;2.23;;
2854;SDS011;1435;49.472;10.940;2023-08-08T04:45:50;2.90;;;1.93;;
2854;SDS011;1435;49.472;10.940;2023-08-08T04:50:52;2.30;;;2.10;;
2854;SDS011;1435;49.472;10.940;2023-08-08T04:55:55;2.60;;;1.73;;
2854;SDS011;1435;49.472;10.940;2023-08-08T05:00:56;2.20;;;2.00;;
2854;SDS011;1435;49.472;10.940;2023-08-08T05:05:58;2.23;;;1.80;;
2854;SDS011;1435;49.472;10.940;2023-08-08T05:11:01;2.53;;;2.33;;
2854;SDS011;1435;49.472;10.940;2023-08-08T05:16:03;2.13;;;1.93;;
2854;SDS011;1435;49.472;10.940;2023-08-08T05:21:06;1.80;;;1.67;;
2854;SDS011;1435;49.472;10.940;2023-08-08T05:26:09;5.37;;;2.30;;
2854;SDS011;1435;49.472;10.940;2023-08-08T05:31:11;2.70;;;2.50;;
2854;SDS011;1435;49.472;10.940;2023-08-08T05:36:12;3.20;;;2.27;;
2854;SDS011;1435;49.472;10.940;2023-08-08T05:41:15;4.33;;;2.47;;
2854;SDS011;1435;49.472;10.940;2023-08-08T05:46:17;3.97;;;2.43;;
2854;SDS011;1435;49.472;10.940;2023-08-08T05:51:19;2.30;;;2.07;;
2854;SDS011;1435;49.472;10.940;2023-08-08T05:56:22;2.33;;;2.13;;
2854;SDS011;1435;49.472;10.940;2023-08-08T06:01:23;4.27;;;2.10;;
2854;SDS011;1435;49.472;10.940;2023-08-08T06:06:25;3.87;;;2.40;;
2854;SDS011;1435;49.472;10.940;2023-08-08T06:11:28;2.23;;;1.80;;
2854;SDS011;1435;49.472;10.940;2023-08-08T06:16:30;2.00;;;1.90;;
2854;SDS011;1435;49.472;10.940;2023-08-08T06:21:32;3.03;;;2.20;;
2854;SDS011;1435;49.472;10.940;2023-08-08T06:26:35;2.77;;;2.00;;
2854;SDS011;1435;49.472;10.940;2023-08-08T06:31:36;2.07;;;1.93;;
2854;SDS011;1435;49.472;10.940;2023-08-08T06:36:38;2.10;;;1.90;;
2854;SDS011;1435;49.472;10.940;2023-08-08T06:41:41;2.17;;;1.97;;
2854;SDS011;1435;49.472;10.940;2023-08-08T06:46:43;3.93;;;2.03;;
2854;SDS011;1435;49.472;10.940;2023-08-08T06:51:45;2.50;;;2.30;;
2854;SDS011;1435;49.472;10.940;2023-08-08T06:56:48;3.27;;;2.20;;
2854;SDS011;1435;49.472;10.940;2023-08-08T07:01:49;2.00;;;1.90;;
2854;SDS011;1435;49.472;10.940;2023-08-08T07:06:51;2.50;;;2.30;;
2854;SDS011;1435;49.472;10.940;2023-08-08T07:11:54;2.00;;;1.90;;
2854;SDS011;1435;49.472;10.940;2023-08-08T07:16:56;2.03;;;1.83;;
2854;SDS011;1435;49.472;10.940;2023-08-08T07:21:58;5.00;;;2.27;;
2854;SDS011;1435;49.472;10.940;2023-08-08T07:27:01;2.90;;;1.93;;
2854;SDS011;1435;49.472;10.940;2023-08-08T07:32:04;3.83;;;2.23;;
2854;SDS011;1435;49.472;10.940;2023-08-08T07:37:06;2.40;;;2.20;;
2854;SDS011;1435;49.472;10.940;2023-08-08T07:42:09;2.20;;;1.80;;
2854;SDS011;1435;49.472;10.940;2023-08-08T07:47:11;2.00;;;1.90;;
2854;SDS011;1435;49.472;10.940;2023-08-08T07:52:12;2.67;;;1.70;;
2854;SDS011;1435;49.472;10.940;2023-08-08T07:57:15;2.13;;;1.90;;
2854;SDS011;1435;49.472;10.940;2023-08-08T08:02:17;3.23;;;2.50;;
2854;SDS011;1435;49.472;10.940;2023-08-08T08:07:19;2.47;;;1.60;;
2854;SDS011;1435;49.472;10.940;2023-08-08T08:12:22;2.97;;;1.70;;
2854;SDS011;1435;49.472;10.940;2023-08-08T08:17:24;3.80;;;1.53;;
2854;SDS011;1435;49.472;10.940;2023-08-08T08:22:27;1.70;;;1.60;;
2854;SDS011;1435;49.472;10.940;2023-08-08T08:27:31;4.80;;;1.77;;
2854;SDS011;1435;49.472;10.940;2023-08-08T08:32:33;1.93;;;1.60;;
2854;SDS011;1435;49.472;10.940;2023-08-08T08:37:36;1.70;;;1.60;;
2854;SDS011;1435;49.472;10.940;2023-08-08T08:42:39;2.23;;;1.60;;
2854;SDS011;1435;49.472;10.940;2023-08-08T08:47:41;2.20;;;1.90;;
2854;SDS011;1435;49.472;10.940;2023-08-08T08:52:47;2.47;;;1.77;;
2854;SDS011;1435;49.472;10.940;2023-08-08T08:57:51;1.80;;;1.40;;
2854;SDS011;1435;49.472;10.940;2023-08-08T09:02:54;1.83;;;1.67;;
2854;SDS011;1435;49.472;10.940;2023-08-08T09:07:56;1.63;;;1.20;;
2854;SDS011;1435;49.472;10.940;2023-08-08T09:13:00;1.47;;;1.37;;
2854;SDS011;1435;49.472;10.940;2023-08-08T09:18:02;2.70;;;1.33;;
2854;SDS011;1435;49.472;10.940;2023-08-08T09:23:04;1.67;;;1.30;;
2854;SDS011;1435;49.472;10.940;2023-08-08T09:28:07;2.60;;;1.37;;
2854;SDS011;1435;49.472;10.940;2023-08-08T09:33:09;3.67;;;1.67;;
2854;SDS011;1435;49.472;10.940;2023-08-08T09:38:12;1.97;;;1.10;;
2854;SDS011;1435;49.472;10.940;2023-08-08T09:43:15;1.40;;;1.30;;
2854;SDS011;1435;49.472;10.940;2023-08-08T09:48:17;1.20;;;1.10;;
2854;SDS011;1435;49.472;10.940;2023-08-08T09:53:20;1.30;;;0.97;;
2854;SDS011;1435;49.472;10.940;2023-08-08T09:58:24;1.40;;;1.20;;
2854;SDS011;1435;49.472;10.940;2023-08-08T10:03:26;2.70;;;1.20;;
2854;SDS011;1435;49.472;10.940;2023-08-08T10:08:29;1.90;;;1.40;;
2854;SDS011;1435;49.472;10.940;2023-08-08T10:13:33;1.63;;;1.30;;
2854;SDS011;1435;49.472;10.940;2023-08-08T10:18:36;1.57;;;1.30;;
2854;SDS011;1435;49.472;10.940;2023-08-08T10:23:38;2.70;;;1.83;;
2854;SDS011;1435;49.472;10.940;2023-08-08T10:28:42;1.90;;;1.17;;
2854;SDS011;1435;49.472;10.940;2023-08-08T10:34:03;1.80;;;1.67;;
2854;SDS011;1435;49.472;10.940;2023-08-08T10:39:07;1.20;;;1.10;;
2854;SDS011;1435;49.472;10.940;2023-08-08T10:44:23;1.83;;;1.30;;
2854;SDS011;1435;49.472;10.940;2023-08-08T10:49:25;2.53;;;1.40;;
2854;SDS011;1435;49.472;10.940;2023-08-08T10:54:27;2.83;;;1.23;;
2854;SDS011;1435;49.472;10.940;2023-08-08T10:59:37;1.50;;;1.10;;
2854;SDS011;1435;49.472;10.940;2023-08-08T11:04:39;2.27;;;2.13;;
2854;SDS011;1435;49.472;10.940;2023-08-08T11:09:42;1.10;;;1.00;;
2854;SDS011;1435;49.472;10.940;2023-08-08T11:14:45;2.50;;;1.40;;
2854;SDS011;1435;49.472;10.940;2023-08-08T11:19:46;1.57;;;1.30;;
2854;SDS011;1435;49.472;10.940;2023-08-08T11:24:49;3.13;;;1.50;;
2854;SDS011;1435;49.472;10.940;2023-08-08T11:29:53;1.37;;;1.13;;
2854;SDS011;1435;49.472;10.940;2023-08-08T11:34:57;1.30;;;1.20;;
2854;SDS011;1435;49.472;10.940;2023-08-08T11:39:58;1.30;;;1.20;;
2854;SDS011;1435;49.472;10.940;2023-08-08T11:45:02;2.67;;;1.43;;
2854;SDS011;1435;49.472;10.940;2023-08-08T11:50:05;1.20;;;1.10;;
2854;SDS011;1435;49.472;10.940;2023-08-08T11:55:08;1.43;;;1.33;;
2854;SDS011;1435;49.472;10.940;2023-08-08T12:00:13;2.37;;;1.17;;
2854;SDS011;1435;49.472;10.940;2023-08-08T12:05:15;2.77;;;1.70;;
2854;SDS011;1435;49.472;10.940;2023-08-08T12:10:22;2.80;;;1.10;;
2854;SDS011;1435;49.472;10.940;2023-08-08T12:15:29;1.40;;;1.30;;
2854;SDS011;1435;49.472;10.940;2023-08-08T12:20:31;1.43;;;1.07;;
2854;SDS011;1435;49.472;10.940;2023-08-08T12:25:32;1.73;;;1.30;;
2854;SDS011;1435;49.472;10.940;2023-08-08T12:30:35;1.50;;;1.40;;
2854;SDS011;1435;49.472;10.940;2023-08-08T12:35:37;2.20;;;1.17;;
2854;SDS011;1435;49.472;10.940;2023-08-08T12:40:39;2.20;;;1.53;;
2854;SDS011;1435;49.472;10.940;2023-08-08T12:45:42;2.30;;;1.70;;
2854;SDS011;1435;49.472;10.940;2023-08-08T12:50:44;1.70;;;1.60;;
2854;SDS011;1435;49.472;10.940;2023-08-08T12:55:46;1.50;;;1.33;;
2854;SDS011;1435;49.472;10.940;2023-08-08T13:00:49;2.17;;;1.23;;
2854;SDS011;1435;49.472;10.940;2023-08-08T13:05:51;2.70;;;1.60;;
2854;SDS011;1435;49.472;10.940;2023-08-08T13:10:53;3.20;;;2.07;;
2854;SDS011;1435;49.472;10.940;2023-08-08T13:15:56;1.83;;;1.43;;
2854;SDS011;1435;49.472;10.940;2023-08-08T13:20:58;1.53;;;1.40;;
2854;SDS011;1435;49.472;10.940;2023-08-08T13:25:59;2.10;;;1.20;;
2854;SDS011;1435;49.472;10.940;2023-08-08T13:31:04;2.73;;;1.50;;
2854;SDS011;1435;49.472;10.940;2023-08-08T13:36:08;1.90;;;1.37;;
2854;SDS011;1435;49.472;10.940;2023-08-08T13:41:09;1.40;;;1.23;;
2854;SDS011;1435;49.472;10.940;2023-08-08T13:46:13;2.00;;;1.40;;
2854;SDS011;1435;49.472;10.940;2023-08-08T13:51:14;4.33;;;1.60;;
2854;SDS011;1435;49.472;10.940;2023-08-08T13:56:16;1.40;;;1.30;;
2854;SDS011;1435;49.472;10.940;2023-08-08T14:01:20;1.60;;;1.40;;
2854;SDS011;1435;49.472;10.940;2023-08-08T14:06:22;2.60;;;1.57;;
2854;SDS011;1435;49.472;10.940;2023-08-08T14:11:23;1.40;;;1.30;;
2854;SDS011;1435;49.472;10.940;2023-08-08T14:16:26;1.70;;;1.57;;
2854;SDS011;1435;49.472;10.940;2023-08-08T14:21:28;2.50;;;1.53;;
2854;SDS011;1435;49.472;10.940;2023-08-08T14:26:30;1.50;;;1.40;;
2854;SDS011;1435;49.472;10.940;2023-08-08T14:31:33;1.90;;;1.70;;
2854;SDS011;1435;49.472;10.940;2023-08-08T14:36:34;1.67;;;1.27;;
2854;SDS011;1435;49.472;10.940;2023-08-08T14:41:36;1.30;;;1.20;;
2854;SDS011;1435;49.472;10.940;2023-08-08T14:46:39;2.50;;;1.23;;
2854;SDS011;1435;49.472;10.940;2023-08-08T14:51:41;2.87;;;1.53;;
2854;SDS011;1435;49.472;10.940;2023-08-08T14:56:43;3.67;;;1.60;;
2854;SDS011;1435;49.472;10.940;2023-08-08T15:01:46;1.40;;;1.30;;
2854;SDS011;1435;49.472;10.940;2023-08-08T15:06:48;1.60;;;1.20;;
2854;SDS011;1435;49.472;10.940;2023-08-08T15:11:49;1.93;;;1.70;;
2854;SDS011;1435;49.472;10.940;2023-08-08T15:16:52;1.50;;;1.40;;
2854;SDS011;1435;49.472;10.940;2023-08-08T15:21:54;2.00;;;1.23;;
2854;SDS011;1435;49.472;10.940;2023-08-08T15:26:56;1.43;;;1.33;;
2854;SDS011;1435;49.472;10.940;2023-08-08T15:31:59;2.57;;;1.20;;
2854;SDS011;1435;49.472;10.940;2023-08-08T15:37:01;1.00;;;1.00;;
2854;SDS011;1435;49.472;10.940;2023-08-08T15:42:02;2.87;;;1.27;;
2854;SDS011;1435;49.472;10.940;2023-08-08T15:47:06;1.97;;;1.33;;
2854;SDS011;1435;49.472;10.940;2023-08-08T15:52:08;1.40;;;1.27;;
2854;SDS011;1435;49.472;10.940;2023-08-08T15:57:10;1.70;;;1.60;;
2854;SDS011;1435;49.472;10.940;2023-08-08T16:02:13;2.83;;;1.30;;
2854;SDS011;1435;49.472;10.940;2023-08-08T16:07:14;2.87;;;1.60;;
2854;SDS011;1435;49.472;10.940;2023-08-08T16:12:18;1.20;;;1.10;;
2854;SDS011;1435;49.472;10.940;2023-08-08T16:17:21;1.77;;;1.07;;
2854;SDS011;1435;49.472;10.940;2023-08-08T16:22:23;1.50;;;1.40;;
2854;SDS011;1435;49.472;10.940;2023-08-08T16:27:25;1.43;;;1.33;;
2854;SDS011;1435;49.472;10.940;2023-08-08T16:32:28;1.60;;;1.50;;
2854;SDS011;1435;49.472;10.940;2023-08-08T16:37:30;2.87;;;1.83;;
2854;SDS011;1435;49.472;10.940;2023-08-08T16:42:31;3.03;;;1.27;;
2854;SDS011;1435;49.472;10.940;2023-08-08T16:47:35;1.63;;;1.47;;
2854;SDS011;1435;49.472;10.940;2023-08-08T16:52:37;1.10;;;1.00;;
2854;SDS011;1435;49.472;10.940;2023-08-08T16:57:39;2.17;;;1.20;;
2854;SDS011;1435;49.472;10.940;2023-08-08T17:02:42;2.00;;;1.23;;
2854;SDS011;1435;49.472;10.940;2023-08-08T17:07:44;1.80;;;1.00;;
2854;SDS011;1435;49.472;10.940;2023-08-08T17:12:46;2.50;;;1.50;;
2854;SDS011;1435;49.472;10.940;2023-08-08T17:17:49;3.17;;;1.90;;
2854;SDS011;1435;49.472;10.940;2023-08-08T17:22:50;1.67;;;1.40;;
2854;SDS011;1435;49.472;10.940;2023-08-08T17:27:52;2.13;;;1.00;;
2854;SDS011;1435;49.472;10.940;2023-08-08T17:32:55;1.40;;;1.20;;
2854;SDS011;1435;49.472;10.940;2023-08-08T17:37:57;1.20;;;1.10;;
2854;SDS011;1435;49.472;10.940;2023-08-08T17:42:59;1.60;;;1.37;;
2854;SDS011;1435;49.472;10.940;2023-08-08T17:48:02;1.47;;;1.30;;
2854;SDS011;1435;49.472;10.940;2023-08-08T17:53:04;1.47;;;1.23;;
2854;SDS011;1435;49.472;10.940;2023-08-08T17:58:06;1.50;;;1.20;;
2854;SDS011;1435;49.472;10.940;2023-08-08T18:03:10;2.33;;;1.20;;
2854;SDS011;1435;49.472;10.940;2023-08-08T18:08:11;3.83;;;1.13;;
2854;SDS011;1435;49.472;10.940;2023-08-08T18:13:13;1.43;;;1.23;;
2854;SDS011;1435;49.472;10.940;2023-08-08T18:18:16;4.13;;;1.30;;
2854;SDS011;1435;49.472;10.940;2023-08-08T18:23:18;1.60;;;1.13;;
2854;SDS011;1435;49.472;10.940;2023-08-08T18:28:21;1.93;;;0.93;;
2854;SDS011;1435;49.472;10.940;2023-08-08T18:33:25;1.10;;;0.97;;
2854;SDS011;1435;49.472;10.940;2023-08-08T18:38:26;2.40;;;1.20;;
2854;SDS011;1435;49.472;10.940;2023-08-08T18:43:28;1.70;;;1.20;;
2854;SDS011;1435;49.472;10.940;2023-08-08T18:48:31;2.77;;;1.33;;
2854;SDS011;1435;49.472;10.940;2023-08-08T18:53:33;1.73;;;1.40;;
2854;SDS011;1435;49.472;10.940;2023-08-08T18:58:35;4.40;;;1.43;;
2854;SDS011;1435;49.472;10.940;2023-08-08T19:03:39;2.30;;;1.13;;
2854;SDS011;1435;49.472;10.940;2023-08-08T19:08:42;2.50;;;1.20;;
2854;SDS011;1435;49.472;10.940;2023-08-08T19:13:43;2.40;;;1.30;;
2854;SDS011;1435;49.472;10.940;2023-08-08T19:18:46;1.97;;;1.20;;
2854;SDS011;1435;49.472;10.940;2023-08-08T19:23:48;2.10;;;1.23;;
2854;SDS011;1435;49.472;10.940;2023-08-08T19:28:50;1.33;;;1.23;;
2854;SDS011;1435;49.472;10.940;2023-08-08T19:33:53;1.07;;;0.97;;
2854;SDS011;1435;49.472;10.940;2023-08-08T19:38:55;2.73;;;1.63;;
2854;SDS011;1435;49.472;10.940;2023-08-08T19:43:57;1.90;;;1.43;;
2854;SDS011;1435;49.472;10.940;2023-08-08T19:49:00;1.23;;;1.13;;
2854;SDS011;1435;49.472;10.940;2023-08-08T19:54:02;1.83;;;1.53;;
2854;SDS011;1435;49.472;10.940;2023-08-08T19:59:04;1.50;;;1.40;;
2854;SDS011;1435;49.472;10.940;2023-08-08T20:04:08;1.30;;;1.17;;
2854;SDS011;1435;49.472;10.940;2023-08-08T20:09:10;2.13;;;1.93;;
2854;SDS011;1435;49.472;10.940;2023-08-08T20:14:12;2.17;;;1.63;;
2854;SDS011;1435;49.472;10.940;2023-08-08T20:19:15;2.37;;;1.30;;
2854;SDS011;1435;49.472;10.940;2023-08-08T20:24:16;2.70;;;1.20;;
2854;SDS011;1435;49.472;10.940;2023-08-08T20:29:18;1.33;;;1.23;;
2854;SDS011;1435;49.472;10.940;2023-08-08T20:34:21;1.43;;;1.10;;
2854;SDS011;1435;49.472;10.940;2023-08-08T20:39:23;1.70;;;1.50;;
2854;SDS011;1435;49.472;10.940;2023-08-08T20:44:26;2.20;;;1.43;;
2854;SDS011;1435;49.472;10.940;2023-08-08T20:49:30;1.60;;;1.20;;
2854;SDS011;1435;49.472;10.940;2023-08-08T20:54:32;2.10;;;1.63;;
2854;SDS011;1435;49.472;10.940;2023-08-08T20:59:34;1.83;;;1.23;;
2854;SDS011;1435;49.472;10.940;2023-08-08T21:04:37;4.70;;;1.60;;
2854;SDS011;1435;49.472;10.940;2023-08-08T21:09:39;2.50;;;1.67;;
2854;SDS011;1435;49.472;10.940;2023-08-08T21:14:41;1.40;;;1.30;;
2854;SDS011;1435;49.472;10.940;2023-08-08T21:19:44;1.40;;;1.23;;
2854;SDS011;1435;49.472;10.940;2023-08-08T21:24:46;9.37;;;1.57;;
2854;SDS011;1435;49.472;10.940;2023-08-08T21:29:47;1.90;;;1.63;;
2854;SDS011;1435;49.472;10.940;2023-08-08T21:34:50;4.00;;;1.70;;
2854;SDS011;1435;49.472;10.940;2023-08-08T21:39:52;1.40;;;1.30;;
2854;SDS011;1435;49.472;10.940;2023-08-08T21:44:54;3.83;;;1.83;;
2854;SDS011;1435;49.472;10.940;2023-08-08T21:49:57;1.40;;;1.30;;
2854;SDS011;1435;49.472;10.940;2023-08-08T21:54:59;3.90;;;2.20;;
2854;SDS011;1435;49.472;10.940;2023-08-08T22:00:01;1.70;;;1.43;;
2854;SDS011;1435;49.472;10.940;2023-08-08T22:05:06;2.80;;;1.70;;
2854;SDS011;1435;49.472;10.940;2023-08-08T22:10:08;2.53;;;1.63;;
2854;SDS011;1435;49.472;10.940;2023-08-08T22:15:11;4.50;;;2.20;;
2854;SDS011;1435;49.472;10.940;2023-08-08T22:20:15;4.93;;;1.80;;
2854;SDS011;1435;49.472;10.940;2023-08-08T22:25:17;1.90;;;1.70;;
2854;SDS011;1435;49.472;10.940;2023-08-08T22:30:19;1.60;;;1.33;;
2854;SDS011;1435;49.472;10.940;2023-08-08T22:35:22;2.30;;;1.70;;
2854;SDS011;1435;49.472;10.940;2023-08-08T22:40:24;2.00;;;1.83;;
2854;SDS011;1435;49.472;10.940;2023-08-08T22:45:26;2.60;;;1.77;;
2854;SDS011;1435;49.472;10.940;2023-08-08T22:50:29;2.93;;;1.90;;
2854;SDS011;1435;49.472;10.940;2023-08-08T22:55:31;1.53;;;1.43;;
2854;SDS011;1435;49.472;10.940;2023-08-08T23:00:33;1.73;;;1.47;;
2854;SDS011;1435;49.472;10.940;2023-08-08T23:05:36;1.80;;;1.30;;
2854;SDS011;1435;49.472;10.940;2023-08-08T23:10:38;2.07;;;1.43;;
2854;SDS011;1435;49.472;10.940;2023-08-08T23:15:40;4.30;;;1.97;;
2854;SDS011;1435;49.472;10.940;2023-08-08T23:20:43;3.87;;;2.00;;
2854;SDS011;1435;49.472;10.940;2023-08-08T23:25:47;3.50;;;1.50;;
2854;SDS011;1435;49.472;10.940;2023-08-08T23:30:49;3.57;;;2.13;;
2854;SDS011;1435;49.472;10.940;2023-08-08T23:35:52;2.90;;;1.97;;
2854;SDS011;1435;49.472;10.940;2023-08-08T23:40:54;2.67;;;1.80;;
2854;SDS011;1435;49.472;10.940;2023-08-08T23:45:56;2.10;;;1.70;;
2854;SDS011;1435;49.472;10.940;2023-08-08T23:50:59;2.50;;;2.20;;
2854;SDS011;1435;49.472;10.940;2023-08-08T23:56:01;2.53;;;2.23;;
